sensor_id;sensor_type;location;lat;lon;timestamp;P1;durP1;ratioP1;P2;durP2;ratioP2
2972;SDS011;1496;51.404;7.232;2023-12-20T00:01:29;11.30;;;7.10;;
2972;SDS011;1496;51.404;7.232;2023-12-20T00:03:54;11.43;;;7.07;;
2972;SDS011;1496;51.404;7.232;2023-12-20T00:06:20;13.27;;;8.77;;
2972;SDS011;1496;51.404;7.232;2023-12-20T00:08:46;14.07;;;8.10;;
2972;SDS011;1496;51.404;7.232;2023-12-20T00:11:12;16.00;;;9.80;;
2972;SDS011;1496;51.404;7.232;2023-12-20T00:13:41;14.37;;;9.67;;
2972;SDS011;1496;51.404;7.232;2023-12-20T00:16:07;19.23;;;11.07;;
2972;SDS011;1496;51.404;7.232;2023-12-20T00:18:32;17.80;;;10.97;;
2972;SDS011;1496;51.404;7.232;2023-12-20T00:20:58;19.07;;;10.73;;
2972;SDS011;1496;51.404;7.232;2023-12-20T00:23:24;20.50;;;11.87;;
2972;SDS011;1496;51.404;7.232;2023-12-20T00:25:49;19.07;;;11.40;;
2972;SDS011;1496;51.404;7.232;2023-12-20T00:28:15;19.53;;;11.90;;
2972;SDS011;1496;51.404;7.232;2023-12-20T00:30:41;19.10;;;13.10;;
2972;SDS011;1496;51.404;7.232;2023-12-20T00:33:07;23.47;;;11.40;;
2972;SDS011;1496;51.404;7.232;2023-12-20T00:35:32;19.57;;;12.30;;
2972;SDS011;1496;51.404;7.232;2023-12-20T00:37:58;26.30;;;12.47;;
2972;SDS011;1496;51.404;7.232;2023-12-20T00:40:24;19.53;;;11.83;;
2972;SDS011;1496;51.404;7.232;2023-12-20T00:42:50;19.30;;;10.60;;
2972;SDS011;1496;51.404;7.232;2023-12-20T00:45:17;22.13;;;11.67;;
2972;SDS011;1496;51.404;7.232;2023-12-20T00:47:43;27.67;;;14.17;;
2972;SDS011;1496;51.404;7.232;2023-12-20T00:50:09;20.73;;;12.60;;
2972;SDS011;1496;51.404;7.232;2023-12-20T00:52:35;24.03;;;12.87;;
2972;SDS011;1496;51.404;7.232;2023-12-20T00:55:03;23.20;;;15.00;;
2972;SDS011;1496;51.404;7.232;2023-12-20T00:57:30;28.10;;;15.13;;
2972;SDS011;1496;51.404;7.232;2023-12-20T00:59:57;28.00;;;15.10;;
2972;SDS011;1496;51.404;7.232;2023-12-20T01:02:23;26.93;;;15.00;;
2972;SDS011;1496;51.404;7.232;2023-12-20T01:04:48;24.53;;;13.80;;
2972;SDS011;1496;51.404;7.232;2023-12-20T01:07:14;27.77;;;13.47;;
2972;SDS011;1496;51.404;7.232;2023-12-20T01:09:39;25.77;;;13.20;;
2972;SDS011;1496;51.404;7.232;2023-12-20T01:12:05;18.60;;;12.07;;
2972;SDS011;1496;51.404;7.232;2023-12-20T01:14:31;27.23;;;12.03;;
2972;SDS011;1496;51.404;7.232;2023-12-20T01:16:56;22.17;;;12.20;;
2972;SDS011;1496;51.404;7.232;2023-12-20T01:19:22;21.70;;;12.30;;
2972;SDS011;1496;51.404;7.232;2023-12-20T01:21:49;23.87;;;12.80;;
2972;SDS011;1496;51.404;7.232;2023-12-20T01:24:15;18.97;;;10.53;;
2972;SDS011;1496;51.404;7.232;2023-12-20T01:26:41;21.50;;;10.53;;
2972;SDS011;1496;51.404;7.232;2023-12-20T01:29:07;23.17;;;10.03;;
2972;SDS011;1496;51.404;7.232;2023-12-20T01:31:33;29.13;;;10.30;;
2972;SDS011;1496;51.404;7.232;2023-12-20T01:33:58;16.17;;;9.63;;
2972;SDS011;1496;51.404;7.232;2023-12-20T01:36:24;15.53;;;9.10;;
2972;SDS011;1496;51.404;7.232;2023-12-20T01:38:50;19.97;;;9.30;;
2972;SDS011;1496;51.404;7.232;2023-12-20T01:41:16;19.33;;;9.20;;
2972;SDS011;1496;51.404;7.232;2023-12-20T01:43:42;23.57;;;8.03;;
2972;SDS011;1496;51.404;7.232;2023-12-20T01:46:08;22.30;;;8.80;;
2972;SDS011;1496;51.404;7.232;2023-12-20T01:48:34;14.93;;;8.27;;
2972;SDS011;1496;51.404;7.232;2023-12-20T01:51:00;18.77;;;9.27;;
2972;SDS011;1496;51.404;7.232;2023-12-20T01:53:27;16.00;;;7.70;;
2972;SDS011;1496;51.404;7.232;2023-12-20T01:55:54;21.10;;;6.83;;
2972;SDS011;1496;51.404;7.232;2023-12-20T01:58:21;13.60;;;5.83;;
2972;SDS011;1496;51.404;7.232;2023-12-20T02:00:48;13.30;;;6.80;;
2972;SDS011;1496;51.404;7.232;2023-12-20T02:03:15;19.07;;;6.90;;
2972;SDS011;1496;51.404;7.232;2023-12-20T02:05:41;10.53;;;6.07;;
2972;SDS011;1496;51.404;7.232;2023-12-20T02:08:07;12.43;;;6.97;;
2972;SDS011;1496;51.404;7.232;2023-12-20T02:10:33;18.27;;;6.90;;
2972;SDS011;1496;51.404;7.232;2023-12-20T02:12:59;16.87;;;9.70;;
2972;SDS011;1496;51.404;7.232;2023-12-20T02:15:25;14.97;;;8.10;;
2972;SDS011;1496;51.404;7.232;2023-12-20T02:17:51;16.67;;;7.77;;
2972;SDS011;1496;51.404;7.232;2023-12-20T02:20:16;16.57;;;8.80;;
2972;SDS011;1496;51.404;7.232;2023-12-20T02:22:42;17.10;;;8.57;;
2972;SDS011;1496;51.404;7.232;2023-12-20T02:25:08;15.63;;;8.77;;
2972;SDS011;1496;51.404;7.232;2023-12-20T02:27:34;19.40;;;9.40;;
2972;SDS011;1496;51.404;7.232;2023-12-20T02:30:00;12.47;;;8.20;;
2972;SDS011;1496;51.404;7.232;2023-12-20T02:32:26;17.17;;;8.03;;
2972;SDS011;1496;51.404;7.232;2023-12-20T02:34:52;20.63;;;9.00;;
2972;SDS011;1496;51.404;7.232;2023-12-20T02:37:19;18.67;;;8.30;;
2972;SDS011;1496;51.404;7.232;2023-12-20T02:39:45;13.30;;;6.83;;
2972;SDS011;1496;51.404;7.232;2023-12-20T02:42:10;16.10;;;7.43;;
2972;SDS011;1496;51.404;7.232;2023-12-20T02:44:36;13.63;;;6.50;;
2972;SDS011;1496;51.404;7.232;2023-12-20T02:47:02;14.13;;;6.80;;
2972;SDS011;1496;51.404;7.232;2023-12-20T02:49:28;21.80;;;6.70;;
2972;SDS011;1496;51.404;7.232;2023-12-20T02:51:54;9.57;;;5.70;;
2972;SDS011;1496;51.404;7.232;2023-12-20T02:54:20;13.40;;;6.83;;
2972;SDS011;1496;51.404;7.232;2023-12-20T02:56:45;21.87;;;6.87;;
2972;SDS011;1496;51.404;7.232;2023-12-20T02:59:11;16.50;;;7.67;;
2972;SDS011;1496;51.404;7.232;2023-12-20T03:01:43;20.57;;;6.50;;
2972;SDS011;1496;51.404;7.232;2023-12-20T03:04:10;12.43;;;7.00;;
2972;SDS011;1496;51.404;7.232;2023-12-20T03:06:36;19.07;;;6.33;;
2972;SDS011;1496;51.404;7.232;2023-12-20T03:09:02;14.80;;;6.40;;
2972;SDS011;1496;51.404;7.232;2023-12-20T03:11:28;19.30;;;7.70;;
2972;SDS011;1496;51.404;7.232;2023-12-20T03:13:54;22.23;;;7.17;;
2972;SDS011;1496;51.404;7.232;2023-12-20T03:16:20;21.33;;;7.27;;
2972;SDS011;1496;51.404;7.232;2023-12-20T03:18:46;22.73;;;5.57;;
2972;SDS011;1496;51.404;7.232;2023-12-20T03:21:12;10.33;;;5.13;;
2972;SDS011;1496;51.404;7.232;2023-12-20T03:23:37;11.43;;;6.27;;
2972;SDS011;1496;51.404;7.232;2023-12-20T03:26:03;14.50;;;5.93;;
2972;SDS011;1496;51.404;7.232;2023-12-20T03:28:32;18.00;;;6.07;;
2972;SDS011;1496;51.404;7.232;2023-12-20T03:30:58;23.03;;;7.33;;
2972;SDS011;1496;51.404;7.232;2023-12-20T03:33:28;16.53;;;7.17;;
2972;SDS011;1496;51.404;7.232;2023-12-20T03:35:54;16.43;;;7.37;;
2972;SDS011;1496;51.404;7.232;2023-12-20T03:38:20;15.43;;;6.60;;
2972;SDS011;1496;51.404;7.232;2023-12-20T03:40:46;13.33;;;6.83;;
2972;SDS011;1496;51.404;7.232;2023-12-20T03:43:12;24.50;;;7.70;;
2972;SDS011;1496;51.404;7.232;2023-12-20T03:45:37;26.93;;;8.37;;
2972;SDS011;1496;51.404;7.232;2023-12-20T03:48:03;21.67;;;7.40;;
2972;SDS011;1496;51.404;7.232;2023-12-20T03:50:29;18.37;;;7.50;;
2972;SDS011;1496;51.404;7.232;2023-12-20T03:52:55;26.00;;;8.77;;
2972;SDS011;1496;51.404;7.232;2023-12-20T03:55:21;17.80;;;8.23;;
2972;SDS011;1496;51.404;7.232;2023-12-20T03:57:46;22.23;;;9.00;;
2972;SDS011;1496;51.404;7.232;2023-12-20T04:00:12;18.83;;;10.20;;
2972;SDS011;1496;51.404;7.232;2023-12-20T04:02:38;16.43;;;8.33;;
2972;SDS011;1496;51.404;7.232;2023-12-20T04:05:04;18.83;;;10.37;;
2972;SDS011;1496;51.404;7.232;2023-12-20T04:07:31;27.50;;;10.43;;
2972;SDS011;1496;51.404;7.232;2023-12-20T04:09:57;25.43;;;10.60;;
2972;SDS011;1496;51.404;7.232;2023-12-20T04:12:22;18.03;;;9.67;;
2972;SDS011;1496;51.404;7.232;2023-12-20T04:14:48;23.07;;;11.70;;
2972;SDS011;1496;51.404;7.232;2023-12-20T04:17:15;19.50;;;9.70;;
2972;SDS011;1496;51.404;7.232;2023-12-20T04:19:41;29.10;;;10.10;;
2972;SDS011;1496;51.404;7.232;2023-12-20T04:22:07;22.60;;;10.40;;
2972;SDS011;1496;51.404;7.232;2023-12-20T04:24:33;22.60;;;9.10;;
2972;SDS011;1496;51.404;7.232;2023-12-20T04:26:59;22.40;;;9.00;;
2972;SDS011;1496;51.404;7.232;2023-12-20T04:29:25;17.07;;;9.20;;
2972;SDS011;1496;51.404;7.232;2023-12-20T04:31:51;19.00;;;9.80;;
2972;SDS011;1496;51.404;7.232;2023-12-20T04:34:17;15.70;;;8.43;;
2972;SDS011;1496;51.404;7.232;2023-12-20T04:36:43;15.10;;;8.70;;
2972;SDS011;1496;51.404;7.232;2023-12-20T04:39:09;21.73;;;8.60;;
2972;SDS011;1496;51.404;7.232;2023-12-20T04:41:36;15.27;;;7.80;;
2972;SDS011;1496;51.404;7.232;2023-12-20T04:44:02;21.33;;;9.47;;
2972;SDS011;1496;51.404;7.232;2023-12-20T04:46:28;16.63;;;8.73;;
2972;SDS011;1496;51.404;7.232;2023-12-20T04:49:02;20.20;;;8.13;;
2972;SDS011;1496;51.404;7.232;2023-12-20T04:51:28;14.47;;;7.60;;
2972;SDS011;1496;51.404;7.232;2023-12-20T04:53:53;22.60;;;9.67;;
2972;SDS011;1496;51.404;7.232;2023-12-20T04:56:19;22.30;;;10.07;;
2972;SDS011;1496;51.404;7.232;2023-12-20T04:58:44;18.43;;;8.63;;
2972;SDS011;1496;51.404;7.232;2023-12-20T05:01:10;22.13;;;8.30;;
2972;SDS011;1496;51.404;7.232;2023-12-20T05:03:37;17.53;;;7.77;;
2972;SDS011;1496;51.404;7.232;2023-12-20T05:06:02;30.17;;;10.60;;
2972;SDS011;1496;51.404;7.232;2023-12-20T05:08:28;22.53;;;10.07;;
2972;SDS011;1496;51.404;7.232;2023-12-20T05:10:54;20.47;;;8.40;;
2972;SDS011;1496;51.404;7.232;2023-12-20T05:13:20;22.10;;;9.43;;
2972;SDS011;1496;51.404;7.232;2023-12-20T05:15:46;22.00;;;8.00;;
2972;SDS011;1496;51.404;7.232;2023-12-20T05:18:12;24.30;;;8.90;;
2972;SDS011;1496;51.404;7.232;2023-12-20T05:20:38;17.27;;;7.87;;
2972;SDS011;1496;51.404;7.232;2023-12-20T05:23:05;11.90;;;7.63;;
2972;SDS011;1496;51.404;7.232;2023-12-20T05:25:31;15.23;;;9.07;;
2972;SDS011;1496;51.404;7.232;2023-12-20T05:27:57;23.00;;;7.70;;
2972;SDS011;1496;51.404;7.232;2023-12-20T05:30:22;19.50;;;8.07;;
2972;SDS011;1496;51.404;7.232;2023-12-20T05:32:48;15.73;;;8.67;;
2972;SDS011;1496;51.404;7.232;2023-12-20T05:35:14;18.30;;;9.33;;
2972;SDS011;1496;51.404;7.232;2023-12-20T05:37:40;22.70;;;9.30;;
2972;SDS011;1496;51.404;7.232;2023-12-20T05:40:06;14.73;;;8.50;;
2972;SDS011;1496;51.404;7.232;2023-12-20T05:42:35;23.53;;;9.37;;
2972;SDS011;1496;51.404;7.232;2023-12-20T05:45:02;19.30;;;10.17;;
2972;SDS011;1496;51.404;7.232;2023-12-20T05:47:27;21.13;;;10.77;;
2972;SDS011;1496;51.404;7.232;2023-12-20T05:49:53;25.13;;;9.70;;
2972;SDS011;1496;51.404;7.232;2023-12-20T05:52:19;22.93;;;9.70;;
2972;SDS011;1496;51.404;7.232;2023-12-20T05:54:44;19.67;;;8.97;;
2972;SDS011;1496;51.404;7.232;2023-12-20T05:57:10;17.67;;;9.03;;
2972;SDS011;1496;51.404;7.232;2023-12-20T05:59:35;25.63;;;8.87;;
2972;SDS011;1496;51.404;7.232;2023-12-20T06:02:03;21.43;;;9.27;;
2972;SDS011;1496;51.404;7.232;2023-12-20T06:04:29;20.80;;;9.77;;
2972;SDS011;1496;51.404;7.232;2023-12-20T06:06:55;17.47;;;8.83;;
2972;SDS011;1496;51.404;7.232;2023-12-20T06:09:20;20.77;;;9.83;;
2972;SDS011;1496;51.404;7.232;2023-12-20T06:11:46;20.23;;;9.13;;
2972;SDS011;1496;51.404;7.232;2023-12-20T06:14:11;26.90;;;8.70;;
2972;SDS011;1496;51.404;7.232;2023-12-20T06:16:37;15.80;;;9.23;;
2972;SDS011;1496;51.404;7.232;2023-12-20T06:19:03;18.83;;;8.53;;
2972;SDS011;1496;51.404;7.232;2023-12-20T06:21:29;25.83;;;9.37;;
2972;SDS011;1496;51.404;7.232;2023-12-20T06:23:55;14.70;;;7.17;;
2972;SDS011;1496;51.404;7.232;2023-12-20T06:26:20;22.07;;;7.87;;
2972;SDS011;1496;51.404;7.232;2023-12-20T06:28:46;15.70;;;8.07;;
2972;SDS011;1496;51.404;7.232;2023-12-20T06:31:11;16.50;;;7.03;;
2972;SDS011;1496;51.404;7.232;2023-12-20T06:33:37;23.77;;;8.60;;
2972;SDS011;1496;51.404;7.232;2023-12-20T06:36:05;13.43;;;6.60;;
2972;SDS011;1496;51.404;7.232;2023-12-20T06:38:31;21.83;;;6.83;;
2972;SDS011;1496;51.404;7.232;2023-12-20T06:40:57;14.40;;;7.07;;
2972;SDS011;1496;51.404;7.232;2023-12-20T06:43:23;17.80;;;7.63;;
2972;SDS011;1496;51.404;7.232;2023-12-20T06:45:49;22.10;;;8.10;;
2972;SDS011;1496;51.404;7.232;2023-12-20T06:48:16;20.07;;;7.37;;
2972;SDS011;1496;51.404;7.232;2023-12-20T06:50:41;18.87;;;8.63;;
2972;SDS011;1496;51.404;7.232;2023-12-20T06:53:08;18.37;;;7.67;;
2972;SDS011;1496;51.404;7.232;2023-12-20T06:55:34;12.10;;;6.30;;
2972;SDS011;1496;51.404;7.232;2023-12-20T06:58:01;23.30;;;8.03;;
2972;SDS011;1496;51.404;7.232;2023-12-20T07:00:27;14.23;;;7.03;;
2972;SDS011;1496;51.404;7.232;2023-12-20T07:02:53;16.67;;;5.93;;
2972;SDS011;1496;51.404;7.232;2023-12-20T07:05:19;11.10;;;6.27;;
2972;SDS011;1496;51.404;7.232;2023-12-20T07:07:45;18.87;;;7.03;;
2972;SDS011;1496;51.404;7.232;2023-12-20T07:10:13;18.53;;;8.43;;
2972;SDS011;1496;51.404;7.232;2023-12-20T07:12:39;18.80;;;7.13;;
2972;SDS011;1496;51.404;7.232;2023-12-20T07:15:04;20.03;;;7.10;;
2972;SDS011;1496;51.404;7.232;2023-12-20T07:17:32;17.97;;;7.93;;
2972;SDS011;1496;51.404;7.232;2023-12-20T07:19:58;15.23;;;7.20;;
2972;SDS011;1496;51.404;7.232;2023-12-20T07:22:24;21.43;;;7.10;;
2972;SDS011;1496;51.404;7.232;2023-12-20T07:24:50;17.40;;;6.30;;
2972;SDS011;1496;51.404;7.232;2023-12-20T07:27:17;9.13;;;5.47;;
2972;SDS011;1496;51.404;7.232;2023-12-20T07:29:43;13.53;;;6.60;;
2972;SDS011;1496;51.404;7.232;2023-12-20T07:32:09;14.77;;;5.07;;
2972;SDS011;1496;51.404;7.232;2023-12-20T07:34:34;16.10;;;7.00;;
2972;SDS011;1496;51.404;7.232;2023-12-20T07:37:00;29.10;;;6.30;;
2972;SDS011;1496;51.404;7.232;2023-12-20T07:39:26;19.23;;;7.40;;
2972;SDS011;1496;51.404;7.232;2023-12-20T07:41:56;31.47;;;8.03;;
2972;SDS011;1496;51.404;7.232;2023-12-20T07:44:21;14.60;;;6.60;;
2972;SDS011;1496;51.404;7.232;2023-12-20T07:46:47;14.67;;;6.27;;
2972;SDS011;1496;51.404;7.232;2023-12-20T07:49:13;12.97;;;5.90;;
2972;SDS011;1496;51.404;7.232;2023-12-20T07:51:39;12.80;;;4.73;;
2972;SDS011;1496;51.404;7.232;2023-12-20T07:54:05;13.20;;;5.77;;
2972;SDS011;1496;51.404;7.232;2023-12-20T07:56:30;12.03;;;4.90;;
2972;SDS011;1496;51.404;7.232;2023-12-20T07:58:56;16.53;;;5.50;;
2972;SDS011;1496;51.404;7.232;2023-12-20T08:01:22;16.63;;;5.77;;
2972;SDS011;1496;51.404;7.232;2023-12-20T08:03:48;8.33;;;5.03;;
2972;SDS011;1496;51.404;7.232;2023-12-20T08:06:14;11.93;;;5.63;;
2972;SDS011;1496;51.404;7.232;2023-12-20T08:08:42;22.47;;;7.00;;
2972;SDS011;1496;51.404;7.232;2023-12-20T08:11:07;14.50;;;5.30;;
2972;SDS011;1496;51.404;7.232;2023-12-20T08:13:33;19.10;;;5.90;;
2972;SDS011;1496;51.404;7.232;2023-12-20T08:15:58;21.87;;;6.80;;
2972;SDS011;1496;51.404;7.232;2023-12-20T08:18:24;16.10;;;6.33;;
2972;SDS011;1496;51.404;7.232;2023-12-20T08:20:50;15.00;;;5.77;;
2972;SDS011;1496;51.404;7.232;2023-12-20T08:23:18;14.63;;;5.40;;
2972;SDS011;1496;51.404;7.232;2023-12-20T08:25:46;12.33;;;6.47;;
2972;SDS011;1496;51.404;7.232;2023-12-20T08:28:12;11.97;;;5.50;;
2972;SDS011;1496;51.404;7.232;2023-12-20T08:30:37;17.40;;;6.50;;
2972;SDS011;1496;51.404;7.232;2023-12-20T08:33:03;9.13;;;6.10;;
2972;SDS011;1496;51.404;7.232;2023-12-20T08:35:29;17.03;;;7.90;;
2972;SDS011;1496;51.404;7.232;2023-12-20T08:37:55;13.83;;;6.63;;
2972;SDS011;1496;51.404;7.232;2023-12-20T08:40:21;15.97;;;6.77;;
2972;SDS011;1496;51.404;7.232;2023-12-20T08:42:47;28.37;;;8.50;;
2972;SDS011;1496;51.404;7.232;2023-12-20T08:45:13;13.57;;;6.10;;
2972;SDS011;1496;51.404;7.232;2023-12-20T08:47:41;12.67;;;6.23;;
2972;SDS011;1496;51.404;7.232;2023-12-20T08:50:09;18.53;;;6.20;;
2972;SDS011;1496;51.404;7.232;2023-12-20T08:52:35;11.73;;;5.60;;
2972;SDS011;1496;51.404;7.232;2023-12-20T08:55:01;21.50;;;6.30;;
2972;SDS011;1496;51.404;7.232;2023-12-20T08:57:26;23.33;;;6.70;;
2972;SDS011;1496;51.404;7.232;2023-12-20T08:59:53;12.73;;;7.10;;
2972;SDS011;1496;51.404;7.232;2023-12-20T09:02:18;14.70;;;6.73;;
2972;SDS011;1496;51.404;7.232;2023-12-20T09:04:44;13.80;;;6.43;;
2972;SDS011;1496;51.404;7.232;2023-12-20T09:07:25;12.03;;;6.10;;
2972;SDS011;1496;51.404;7.232;2023-12-20T09:09:52;12.63;;;6.77;;
2972;SDS011;1496;51.404;7.232;2023-12-20T09:12:19;15.57;;;6.50;;
2972;SDS011;1496;51.404;7.232;2023-12-20T09:14:49;26.43;;;6.40;;
2972;SDS011;1496;51.404;7.232;2023-12-20T09:17:16;19.53;;;5.90;;
2972;SDS011;1496;51.404;7.232;2023-12-20T09:19:43;18.80;;;5.80;;
2972;SDS011;1496;51.404;7.232;2023-12-20T09:22:09;8.17;;;4.43;;
2972;SDS011;1496;51.404;7.232;2023-12-20T09:24:35;14.80;;;5.83;;
2972;SDS011;1496;51.404;7.232;2023-12-20T09:27:01;20.47;;;4.70;;
2972;SDS011;1496;51.404;7.232;2023-12-20T09:29:27;17.77;;;5.70;;
2972;SDS011;1496;51.404;7.232;2023-12-20T09:31:53;19.83;;;6.67;;
2972;SDS011;1496;51.404;7.232;2023-12-20T09:34:19;20.00;;;5.23;;
2972;SDS011;1496;51.404;7.232;2023-12-20T09:36:45;10.70;;;4.37;;
2972;SDS011;1496;51.404;7.232;2023-12-20T09:39:19;12.50;;;4.30;;
2972;SDS011;1496;51.404;7.232;2023-12-20T09:41:49;27.23;;;5.97;;
2972;SDS011;1496;51.404;7.232;2023-12-20T09:44:27;15.27;;;4.73;;
2972;SDS011;1496;51.404;7.232;2023-12-20T09:46:54;16.00;;;5.50;;
2972;SDS011;1496;51.404;7.232;2023-12-20T09:49:21;12.03;;;4.70;;
2972;SDS011;1496;51.404;7.232;2023-12-20T09:51:48;16.87;;;3.67;;
2972;SDS011;1496;51.404;7.232;2023-12-20T09:54:16;15.43;;;4.50;;
2972;SDS011;1496;51.404;7.232;2023-12-20T09:56:46;18.60;;;4.50;;
2972;SDS011;1496;51.404;7.232;2023-12-20T09:59:15;21.97;;;4.90;;
2972;SDS011;1496;51.404;7.232;2023-12-20T10:01:41;14.60;;;4.10;;
2972;SDS011;1496;51.404;7.232;2023-12-20T10:04:09;9.03;;;5.13;;
2972;SDS011;1496;51.404;7.232;2023-12-20T10:06:43;9.90;;;3.50;;
2972;SDS011;1496;51.404;7.232;2023-12-20T10:09:10;16.07;;;4.60;;
2972;SDS011;1496;51.404;7.232;2023-12-20T10:11:36;19.40;;;4.97;;
2972;SDS011;1496;51.404;7.232;2023-12-20T10:14:03;16.20;;;3.80;;
2972;SDS011;1496;51.404;7.232;2023-12-20T10:16:29;11.13;;;4.07;;
2972;SDS011;1496;51.404;7.232;2023-12-20T10:18:55;13.53;;;4.20;;
2972;SDS011;1496;51.404;7.232;2023-12-20T10:21:25;22.00;;;4.27;;
2972;SDS011;1496;51.404;7.232;2023-12-20T10:23:54;10.10;;;4.33;;
2972;SDS011;1496;51.404;7.232;2023-12-20T10:26:24;18.73;;;4.70;;
2972;SDS011;1496;51.404;7.232;2023-12-20T10:28:52;16.23;;;5.07;;
2972;SDS011;1496;51.404;7.232;2023-12-20T10:31:29;24.37;;;4.67;;
2972;SDS011;1496;51.404;7.232;2023-12-20T10:33:59;21.37;;;4.57;;
2972;SDS011;1496;51.404;7.232;2023-12-20T10:36:26;12.73;;;3.77;;
2972;SDS011;1496;51.404;7.232;2023-12-20T10:38:52;11.53;;;4.60;;
2972;SDS011;1496;51.404;7.232;2023-12-20T10:41:20;11.03;;;4.00;;
2972;SDS011;1496;51.404;7.232;2023-12-20T10:43:51;12.23;;;4.03;;
2972;SDS011;1496;51.404;7.232;2023-12-20T10:46:18;12.50;;;3.90;;
2972;SDS011;1496;51.404;7.232;2023-12-20T10:48:45;12.50;;;4.17;;
2972;SDS011;1496;51.404;7.232;2023-12-20T10:51:13;9.43;;;4.13;;
2972;SDS011;1496;51.404;7.232;2023-12-20T10:53:42;11.40;;;4.70;;
2972;SDS011;1496;51.404;7.232;2023-12-20T10:56:08;19.13;;;4.60;;
2972;SDS011;1496;51.404;7.232;2023-12-20T10:58:40;12.10;;;4.33;;
2972;SDS011;1496;51.404;7.232;2023-12-20T11:01:12;16.37;;;4.23;;
2972;SDS011;1496;51.404;7.232;2023-12-20T11:03:39;12.70;;;3.43;;
2972;SDS011;1496;51.404;7.232;2023-12-20T11:06:19;4.87;;;4.07;;
2972;SDS011;1496;51.404;7.232;2023-12-20T11:08:55;15.73;;;4.90;;
2972;SDS011;1496;51.404;7.232;2023-12-20T11:14:29;13.50;;;4.33;;
2972;SDS011;1496;51.404;7.232;2023-12-20T11:17:06;17.43;;;3.80;;
2972;SDS011;1496;51.404;7.232;2023-12-20T11:22:22;13.87;;;4.70;;
2972;SDS011;1496;51.404;7.232;2023-12-20T11:24:51;8.80;;;4.90;;
2972;SDS011;1496;51.404;7.232;2023-12-20T11:27:19;10.00;;;4.17;;
2972;SDS011;1496;51.404;7.232;2023-12-20T11:29:51;12.70;;;5.53;;
2972;SDS011;1496;51.404;7.232;2023-12-20T11:32:28;16.30;;;4.47;;
2972;SDS011;1496;51.404;7.232;2023-12-20T11:34:55;8.83;;;4.30;;
2972;SDS011;1496;51.404;7.232;2023-12-20T11:37:21;28.60;;;7.87;;
2972;SDS011;1496;51.404;7.232;2023-12-20T11:39:55;15.47;;;5.10;;
2972;SDS011;1496;51.404;7.232;2023-12-20T11:42:21;11.13;;;4.00;;
2972;SDS011;1496;51.404;7.232;2023-12-20T11:44:47;23.77;;;5.97;;
2972;SDS011;1496;51.404;7.232;2023-12-20T11:47:13;13.17;;;4.70;;
2972;SDS011;1496;51.404;7.232;2023-12-20T11:49:41;9.90;;;5.20;;
2972;SDS011;1496;51.404;7.232;2023-12-20T11:52:06;8.03;;;4.50;;
2972;SDS011;1496;51.404;7.232;2023-12-20T11:54:32;10.27;;;7.17;;
2972;SDS011;1496;51.404;7.232;2023-12-20T11:56:58;12.73;;;5.23;;
2972;SDS011;1496;51.404;7.232;2023-12-20T11:59:24;12.57;;;4.30;;
2972;SDS011;1496;51.404;7.232;2023-12-20T12:01:50;14.40;;;5.90;;
2972;SDS011;1496;51.404;7.232;2023-12-20T12:04:16;5.03;;;4.07;;
2972;SDS011;1496;51.404;7.232;2023-12-20T12:06:43;14.20;;;4.37;;
2972;SDS011;1496;51.404;7.232;2023-12-20T12:09:10;13.77;;;5.47;;
2972;SDS011;1496;51.404;7.232;2023-12-20T12:11:35;15.13;;;5.33;;
2972;SDS011;1496;51.404;7.232;2023-12-20T12:14:01;13.20;;;3.90;;
2972;SDS011;1496;51.404;7.232;2023-12-20T12:16:27;28.83;;;6.50;;
2972;SDS011;1496;51.404;7.232;2023-12-20T12:18:56;11.63;;;5.40;;
2972;SDS011;1496;51.404;7.232;2023-12-20T12:21:23;9.30;;;4.13;;
2972;SDS011;1496;51.404;7.232;2023-12-20T12:23:49;18.60;;;5.07;;
2972;SDS011;1496;51.404;7.232;2023-12-20T12:26:15;16.53;;;4.63;;
2972;SDS011;1496;51.404;7.232;2023-12-20T12:28:41;9.07;;;6.10;;
2972;SDS011;1496;51.404;7.232;2023-12-20T12:31:08;17.43;;;4.90;;
2972;SDS011;1496;51.404;7.232;2023-12-20T12:33:38;12.80;;;5.47;;
2972;SDS011;1496;51.404;7.232;2023-12-20T12:36:06;14.40;;;4.80;;
2972;SDS011;1496;51.404;7.232;2023-12-20T12:38:33;14.70;;;5.20;;
2972;SDS011;1496;51.404;7.232;2023-12-20T12:40:59;13.03;;;5.37;;
2972;SDS011;1496;51.404;7.232;2023-12-20T12:43:26;17.50;;;5.40;;
2972;SDS011;1496;51.404;7.232;2023-12-20T12:45:51;17.30;;;5.43;;
2972;SDS011;1496;51.404;7.232;2023-12-20T12:48:17;15.03;;;5.63;;
2972;SDS011;1496;51.404;7.232;2023-12-20T12:50:43;16.00;;;5.27;;
2972;SDS011;1496;51.404;7.232;2023-12-20T12:53:10;12.97;;;4.87;;
2972;SDS011;1496;51.404;7.232;2023-12-20T12:55:36;16.03;;;4.80;;
2972;SDS011;1496;51.404;7.232;2023-12-20T12:58:01;9.57;;;4.87;;
2972;SDS011;1496;51.404;7.232;2023-12-20T13:00:27;16.50;;;6.37;;
2972;SDS011;1496;51.404;7.232;2023-12-20T13:02:53;20.77;;;5.20;;
2972;SDS011;1496;51.404;7.232;2023-12-20T13:05:18;16.30;;;4.70;;
2972;SDS011;1496;51.404;7.232;2023-12-20T13:07:44;18.73;;;4.63;;
2972;SDS011;1496;51.404;7.232;2023-12-20T13:10:13;13.03;;;4.50;;
2972;SDS011;1496;51.404;7.232;2023-12-20T13:12:41;13.23;;;4.67;;
2972;SDS011;1496;51.404;7.232;2023-12-20T13:15:07;13.43;;;4.77;;
2972;SDS011;1496;51.404;7.232;2023-12-20T13:17:34;10.13;;;4.70;;
2972;SDS011;1496;51.404;7.232;2023-12-20T13:19:59;12.03;;;5.20;;
2972;SDS011;1496;51.404;7.232;2023-12-20T13:22:26;19.83;;;5.53;;
2972;SDS011;1496;51.404;7.232;2023-12-20T13:24:51;15.33;;;5.30;;
2972;SDS011;1496;51.404;7.232;2023-12-20T13:27:17;12.97;;;5.30;;
2972;SDS011;1496;51.404;7.232;2023-12-20T13:29:43;21.97;;;5.90;;
2972;SDS011;1496;51.404;7.232;2023-12-20T13:32:08;14.50;;;5.37;;
2972;SDS011;1496;51.404;7.232;2023-12-20T13:34:34;14.93;;;4.80;;
2972;SDS011;1496;51.404;7.232;2023-12-20T13:37:00;13.70;;;5.00;;
2972;SDS011;1496;51.404;7.232;2023-12-20T13:39:25;12.90;;;5.60;;
2972;SDS011;1496;51.404;7.232;2023-12-20T13:41:51;10.97;;;4.50;;
2972;SDS011;1496;51.404;7.232;2023-12-20T13:44:17;10.07;;;5.87;;
2972;SDS011;1496;51.404;7.232;2023-12-20T13:46:43;14.60;;;4.20;;
2972;SDS011;1496;51.404;7.232;2023-12-20T13:49:08;7.23;;;5.03;;
2972;SDS011;1496;51.404;7.232;2023-12-20T13:51:34;14.80;;;5.30;;
2972;SDS011;1496;51.404;7.232;2023-12-20T13:54:00;11.97;;;4.50;;
2972;SDS011;1496;51.404;7.232;2023-12-20T13:56:25;9.03;;;4.00;;
2972;SDS011;1496;51.404;7.232;2023-12-20T13:58:51;7.00;;;3.40;;
2972;SDS011;1496;51.404;7.232;2023-12-20T14:01:17;8.77;;;5.30;;
2972;SDS011;1496;51.404;7.232;2023-12-20T14:03:42;8.33;;;4.53;;
2972;SDS011;1496;51.404;7.232;2023-12-20T14:06:08;7.67;;;4.80;;
2972;SDS011;1496;51.404;7.232;2023-12-20T14:08:34;11.93;;;4.80;;
2972;SDS011;1496;51.404;7.232;2023-12-20T14:11:01;8.47;;;4.50;;
2972;SDS011;1496;51.404;7.232;2023-12-20T14:13:27;10.93;;;5.00;;
2972;SDS011;1496;51.404;7.232;2023-12-20T14:15:52;7.63;;;4.27;;
2972;SDS011;1496;51.404;7.232;2023-12-20T14:18:20;6.87;;;4.33;;
2972;SDS011;1496;51.404;7.232;2023-12-20T14:20:46;7.37;;;4.30;;
2972;SDS011;1496;51.404;7.232;2023-12-20T14:23:13;12.03;;;4.43;;
2972;SDS011;1496;51.404;7.232;2023-12-20T14:25:41;12.13;;;4.63;;
2972;SDS011;1496;51.404;7.232;2023-12-20T14:28:07;15.37;;;5.93;;
2972;SDS011;1496;51.404;7.232;2023-12-20T14:30:35;7.77;;;4.30;;
2972;SDS011;1496;51.404;7.232;2023-12-20T14:33:03;11.13;;;5.17;;
2972;SDS011;1496;51.404;7.232;2023-12-20T14:35:29;9.97;;;5.43;;
2972;SDS011;1496;51.404;7.232;2023-12-20T14:37:55;8.60;;;5.20;;
2972;SDS011;1496;51.404;7.232;2023-12-20T14:40:21;13.10;;;6.00;;
2972;SDS011;1496;51.404;7.232;2023-12-20T14:42:47;7.17;;;4.80;;
2972;SDS011;1496;51.404;7.232;2023-12-20T14:45:13;17.20;;;7.03;;
2972;SDS011;1496;51.404;7.232;2023-12-20T14:47:41;11.33;;;5.80;;
2972;SDS011;1496;51.404;7.232;2023-12-20T14:50:07;10.07;;;6.13;;
2972;SDS011;1496;51.404;7.232;2023-12-20T14:52:33;10.67;;;5.63;;
2972;SDS011;1496;51.404;7.232;2023-12-20T14:54:59;11.00;;;6.57;;
2972;SDS011;1496;51.404;7.232;2023-12-20T14:57:26;6.93;;;5.10;;
2972;SDS011;1496;51.404;7.232;2023-12-20T14:59:52;18.03;;;6.10;;
2972;SDS011;1496;51.404;7.232;2023-12-20T15:02:18;12.40;;;6.00;;